createdAt,value
2023-03-08T00:01:08.961Z,3.35
2023-03-08T00:03:35.448Z,3.37
2023-03-08T00:06:06.245Z,3.40
2023-03-08T00:08:33.355Z,3.41
2023-03-08T00:10:59.917Z,3.44
2023-03-08T00:13:26.443Z,3.44
2023-03-08T00:15:52.898Z,3.45
2023-03-08T00:18:19.285Z,3.47
2023-03-08T00:20:45.699Z,3.47
2023-03-08T00:23:14.727Z,3.48
2023-03-08T00:25:41.338Z,3.48
2023-03-08T00:28:07.792Z,3.47
2023-03-08T00:30:34.146Z,3.47
2023-03-08T00:33:00.721Z,3.47
2023-03-08T00:35:27.188Z,3.47
2023-03-08T00:37:53.701Z,3.47
2023-03-08T00:40:20.081Z,3.47
2023-03-08T00:42:46.524Z,3.45
2023-03-08T00:45:16.264Z,3.43
2023-03-08T00:47:42.696Z,3.42
2023-03-08T00:50:09.603Z,3.40
2023-03-08T00:52:36.240Z,3.36
2023-03-08T00:55:03.719Z,3.35
2023-03-08T00:57:30.102Z,3.33
2023-03-08T00:59:56.711Z,3.32
2023-03-08T01:02:24.006Z,3.30
2023-03-08T01:04:50.403Z,3.30
2023-03-08T01:07:17.032Z,3.29
2023-03-08T01:09:43.442Z,3.28
2023-03-08T01:12:09.942Z,3.28
2023-03-08T01:14:37.288Z,3.28
2023-03-08T01:17:04.017Z,3.26
2023-03-08T01:19:30.600Z,3.27
2023-03-08T01:21:57.900Z,3.27
2023-03-08T01:24:24.531Z,3.25
2023-03-08T01:26:51.132Z,3.23
2023-03-08T01:29:17.883Z,3.21
2023-03-08T01:31:45.129Z,3.18
2023-03-08T01:34:11.656Z,3.13
2023-03-08T01:36:38.324Z,3.09
2023-03-08T01:39:04.813Z,3.06
2023-03-08T01:41:31.617Z,3.01
2023-03-08T01:43:58.628Z,2.97
2023-03-08T01:46:35.437Z,2.93
2023-03-08T01:49:26.562Z,2.88
2023-03-08T01:52:11.938Z,2.85
2023-03-08T01:54:41.288Z,2.80
2023-03-08T01:57:19.429Z,2.75
2023-03-08T01:59:46.826Z,2.70
2023-03-08T02:02:13.204Z,2.68
2023-03-08T02:04:40.426Z,2.67
2023-03-08T02:07:09.381Z,2.68
2023-03-08T02:09:36.286Z,2.67
2023-03-08T02:12:07.395Z,2.66
2023-03-08T02:14:34.315Z,2.67
2023-03-08T02:17:00.710Z,2.67
2023-03-08T02:19:31.400Z,2.68
2023-03-08T02:21:57.689Z,2.69
2023-03-08T02:24:24.679Z,2.69
2023-03-08T02:26:54.989Z,2.68
2023-03-08T02:29:21.285Z,2.68
2023-03-08T02:31:47.531Z,2.68
2023-03-08T02:34:13.869Z,2.70
2023-03-08T02:36:40.188Z,2.70
2023-03-08T02:39:06.637Z,2.69
2023-03-08T02:41:32.905Z,2.69
2023-03-08T02:43:59.146Z,2.67
2023-03-08T02:46:25.414Z,2.65
2023-03-08T02:48:51.665Z,2.60
2023-03-08T02:51:18.051Z,2.58
2023-03-08T02:53:44.487Z,2.58
2023-03-08T02:56:11.024Z,2.58
2023-03-08T02:58:37.422Z,2.56
2023-03-08T03:01:09.509Z,2.55
2023-03-08T03:03:36.218Z,2.51
2023-03-08T03:06:02.584Z,2.50
2023-03-08T03:08:30.715Z,2.48
2023-03-08T03:10:57.050Z,2.45
2023-03-08T03:13:23.344Z,2.44
2023-03-08T03:15:50.395Z,2.45
2023-03-08T03:18:16.983Z,2.47
2023-03-08T03:20:43.240Z,2.50
2023-03-08T03:23:09.678Z,2.55
2023-03-08T03:25:44.290Z,2.58
2023-03-08T03:28:12.998Z,2.62
2023-03-08T03:30:39.776Z,2.65
2023-03-08T03:33:09.009Z,2.68
2023-03-08T03:35:37.058Z,2.71
2023-03-08T03:38:03.411Z,2.73
2023-03-08T03:40:29.906Z,2.76
2023-03-08T03:42:59.423Z,2.76
2023-03-08T03:45:25.754Z,2.77
2023-03-08T03:47:52.642Z,2.78
2023-03-08T03:50:19.146Z,2.80
2023-03-08T03:52:51.116Z,2.82
2023-03-08T03:55:17.565Z,2.83
2023-03-08T03:57:44.183Z,2.83
2023-03-08T04:00:13.632Z,2.83
2023-03-08T04:02:40.005Z,2.83
2023-03-08T04:05:07.283Z,2.81
2023-03-08T04:07:34.488Z,2.79
2023-03-08T04:10:01.130Z,2.78
2023-03-08T04:12:27.565Z,2.75
2023-03-08T04:14:55.053Z,2.73
2023-03-08T04:17:22.601Z,2.71
2023-03-08T04:19:51.817Z,2.71
2023-03-08T04:22:19.140Z,2.70
2023-03-08T04:24:52.215Z,2.70
2023-03-08T04:27:23.558Z,2.69
2023-03-08T04:29:50.007Z,2.67
2023-03-08T04:32:16.979Z,2.64
2023-03-08T04:34:49.263Z,2.62
2023-03-08T04:37:17.524Z,2.61
2023-03-08T04:39:47.017Z,2.58
2023-03-08T04:42:13.619Z,2.57
2023-03-08T04:44:40.175Z,2.54
2023-03-08T04:47:07.060Z,2.51
2023-03-08T04:49:41.496Z,2.47
2023-03-08T04:52:07.821Z,2.42
2023-03-08T04:54:35.180Z,2.37
2023-03-08T04:57:04.761Z,2.32
2023-03-08T04:59:32.152Z,2.28
2023-03-08T05:02:00.478Z,2.23
2023-03-08T05:04:27.606Z,2.17
2023-03-08T05:06:53.910Z,2.11
2023-03-08T05:09:23.223Z,2.05
2023-03-08T05:11:50.496Z,2.02
2023-03-08T05:14:16.888Z,2.02
2023-03-08T05:16:43.272Z,1.97
2023-03-08T05:19:10.137Z,1.96
2023-03-08T05:21:43.224Z,1.97
2023-03-08T05:24:09.541Z,1.99
2023-03-08T05:26:36.443Z,2.01
2023-03-08T05:29:03.298Z,2.04
2023-03-08T05:31:30.773Z,2.09
2023-03-08T05:33:58.580Z,2.14
2023-03-08T05:36:30.432Z,2.20
2023-03-08T05:38:57.123Z,2.25
2023-03-08T05:41:27.756Z,2.30
2023-03-08T05:43:54.757Z,2.36
2023-03-08T05:46:21.288Z,2.41
2023-03-08T05:48:47.941Z,2.46
2023-03-08T05:51:16.900Z,2.50
2023-03-08T05:53:44.505Z,2.53
2023-03-08T05:56:12.761Z,2.57
2023-03-08T05:58:43.571Z,2.61
2023-03-08T06:01:17.368Z,2.62
2023-03-08T06:03:47.632Z,2.61
2023-03-08T06:06:19.778Z,2.61
2023-03-08T06:21:53.843Z,3.12
2023-03-08T06:24:21.641Z,3.17
2023-03-08T06:26:48.797Z,3.22
2023-03-08T06:29:15.565Z,3.28
2023-03-08T06:31:41.921Z,3.31
2023-03-08T06:34:08.376Z,3.31
2023-03-08T06:36:43.210Z,3.34
2023-03-08T06:39:09.532Z,3.37
2023-03-08T06:41:35.877Z,3.41
2023-03-08T06:44:02.566Z,3.49
2023-03-08T06:46:29.081Z,3.58
2023-03-08T06:48:55.523Z,3.62
2023-03-08T06:51:22.557Z,3.62
2023-03-08T06:53:49.298Z,3.63
2023-03-08T06:56:18.652Z,3.64
2023-03-08T06:58:45.006Z,3.64
2023-03-08T07:01:12.320Z,3.73
2023-03-08T07:03:38.797Z,3.86
2023-03-08T07:06:06.815Z,3.93
2023-03-08T07:08:33.380Z,4.01
2023-03-08T07:10:59.832Z,4.10
2023-03-08T07:13:26.413Z,4.23
2023-03-08T07:15:52.780Z,4.38
2023-03-08T07:18:20.022Z,4.53
2023-03-08T07:20:54.951Z,4.55
2023-03-08T07:23:21.320Z,4.47
2023-03-08T07:25:47.623Z,4.35
2023-03-08T07:28:13.908Z,4.24
2023-03-08T07:30:40.411Z,4.23
2023-03-08T07:33:10.843Z,4.33
2023-03-08T07:35:39.869Z,4.32
2023-03-08T07:38:06.472Z,4.30
2023-03-08T07:40:32.846Z,4.28
2023-03-08T07:42:59.190Z,4.27
2023-03-08T07:45:43.678Z,4.24
2023-03-08T07:48:09.962Z,4.22
2023-03-08T07:50:36.328Z,4.21
2023-03-08T07:53:02.679Z,4.24
2023-03-08T07:55:29.191Z,4.14
2023-03-08T07:57:55.632Z,4.04
2023-03-08T08:00:23.138Z,3.90
2023-03-08T08:02:50.863Z,3.81
2023-03-08T08:05:19.244Z,3.76
2023-03-08T08:07:46.647Z,3.67
2023-03-08T08:10:13.377Z,3.57
2023-03-08T08:12:42.815Z,3.53
2023-03-08T08:15:34.876Z,3.54
2023-03-08T08:19:01.167Z,3.60
2023-03-08T08:22:05.847Z,3.82
2023-03-08T08:24:34.917Z,4.01
2023-03-08T08:27:01.238Z,4.15
2023-03-08T08:29:27.803Z,4.19
2023-03-08T08:31:54.140Z,4.21
2023-03-08T08:34:20.418Z,4.20
2023-03-08T08:36:46.889Z,4.17
2023-03-08T08:39:13.323Z,4.18
2023-03-08T08:41:39.741Z,4.21
2023-03-08T08:44:06.135Z,4.24
2023-03-08T08:46:32.491Z,4.24
2023-03-08T08:48:59.103Z,4.19
2023-03-08T08:51:25.801Z,4.20
2023-03-08T08:53:52.878Z,4.18
2023-03-08T08:56:27.204Z,4.13
2023-03-08T08:59:01.838Z,4.06
2023-03-08T09:01:29.453Z,4.01
2023-03-08T09:03:55.880Z,4.07
2023-03-08T09:06:22.956Z,4.16
2023-03-08T09:08:53.400Z,4.20
2023-03-08T09:11:19.763Z,4.26
2023-03-08T09:13:46.268Z,4.31
2023-03-08T09:16:17.206Z,4.45
2023-03-08T09:18:43.850Z,4.59
2023-03-08T09:21:10.329Z,4.75
2023-03-08T09:23:36.646Z,4.99
2023-03-08T09:26:03.092Z,5.19
2023-03-08T09:28:29.450Z,5.27
2023-03-08T09:34:45.419Z,5.43
2023-03-08T09:37:11.800Z,5.68
2023-03-08T09:39:42.936Z,5.90
2023-03-08T09:51:05.105Z,7.08
2023-03-08T09:54:03.583Z,7.20
2023-03-08T09:56:30.595Z,7.54
2023-03-08T09:59:05.001Z,7.83
2023-03-08T10:01:37.645Z,8.54
2023-03-08T10:04:11.955Z,9.09
2023-03-08T10:06:47.957Z,9.31
2023-03-08T10:09:32.655Z,9.23
2023-03-08T10:11:59.529Z,8.99
2023-03-08T10:14:29.546Z,9.06
2023-03-08T10:17:02.541Z,8.70
2023-03-08T10:19:41.290Z,8.45
2023-03-08T10:22:14.520Z,8.47
2023-03-08T10:24:44.918Z,8.85
2023-03-08T10:27:25.011Z,9.49
2023-03-08T10:29:52.301Z,10.01
2023-03-08T10:32:19.007Z,10.29
2023-03-08T10:34:45.480Z,10.83
2023-03-08T10:37:12.172Z,11.02
2023-03-08T10:39:47.719Z,10.26
2023-03-08T10:42:14.787Z,9.68
2023-03-08T10:44:43.770Z,9.75
2023-03-08T10:47:29.058Z,9.73
2023-03-08T10:50:10.637Z,9.64
2023-03-08T10:52:37.074Z,10.51
2023-03-08T10:55:03.442Z,10.65
2023-03-08T10:57:30.020Z,10.24
2023-03-08T10:59:59.072Z,10.11
2023-03-08T11:02:25.410Z,10.35
2023-03-08T11:04:53.033Z,10.73
2023-03-08T11:07:24.141Z,11.19
2023-03-08T11:09:50.629Z,11.73
2023-03-08T11:12:21.496Z,12.31
2023-03-08T11:14:48.367Z,12.73
2023-03-08T11:17:21.975Z,13.48
2023-03-08T11:20:06.962Z,14.53
2023-03-08T11:22:33.948Z,14.88
2023-03-08T11:25:04.552Z,14.97
2023-03-08T11:27:40.464Z,15.19
2023-03-08T11:30:35.323Z,14.57
2023-03-08T11:33:08.298Z,13.88
2023-03-08T11:35:44.209Z,13.33
2023-03-08T11:38:16.389Z,12.73
2023-03-08T11:41:02.005Z,11.99
2023-03-08T11:43:31.297Z,11.47
2023-03-08T11:46:04.034Z,11.13
2023-03-08T11:48:33.720Z,10.76
2023-03-08T11:51:05.198Z,10.50
2023-03-08T11:53:31.489Z,10.28
2023-03-08T11:56:11.474Z,9.94
2023-03-08T11:58:41.971Z,9.60
2023-03-08T12:01:31.610Z,9.36
2023-03-08T12:04:03.288Z,9.15
2023-03-08T12:06:42.016Z,8.94
2023-03-08T12:09:27.017Z,8.74
2023-03-08T12:11:57.629Z,8.58
2023-03-08T12:14:29.617Z,8.52
2023-03-08T12:17:03.666Z,8.49
2023-03-08T12:19:29.993Z,8.47
2023-03-08T12:22:08.379Z,8.41
2023-03-08T12:24:50.083Z,8.35
2023-03-08T12:27:33.946Z,8.26
2023-03-08T12:30:00.187Z,8.23
2023-03-08T12:32:27.152Z,8.86
2023-03-08T12:35:02.060Z,10.11
2023-03-08T12:37:29.058Z,11.16
2023-03-08T12:39:55.423Z,12.07
2023-03-08T12:42:48.091Z,12.67
2023-03-08T12:45:20.484Z,12.63
2023-03-08T12:48:05.609Z,12.40
2023-03-08T12:50:35.563Z,12.24
2023-03-08T12:53:01.920Z,11.83
2023-03-08T12:55:29.436Z,11.40
2023-03-08T12:57:56.617Z,11.01
2023-03-08T13:00:24.998Z,10.62
2023-03-08T13:03:02.869Z,10.24
2023-03-08T13:05:29.318Z,9.99
2023-03-08T13:08:01.465Z,9.84
2023-03-08T13:10:35.444Z,9.77
2023-03-08T13:13:20.467Z,9.73
2023-03-08T13:16:04.553Z,9.66
2023-03-08T13:18:30.943Z,9.57
2023-03-08T13:21:00.254Z,9.45
2023-03-08T13:23:34.623Z,9.32
2023-03-08T13:26:01.002Z,9.16
2023-03-08T13:28:46.075Z,8.97
2023-03-08T13:31:17.884Z,8.79
2023-03-08T13:33:48.651Z,8.72
2023-03-08T13:36:18.360Z,8.68
2023-03-08T13:38:53.553Z,8.61
2023-03-08T13:41:29.779Z,8.58
2023-03-08T13:43:59.935Z,8.63
2023-03-08T13:46:27.096Z,8.69
2023-03-08T13:48:53.575Z,8.70
2023-03-08T13:51:22.319Z,8.71
2023-03-08T13:53:48.940Z,8.68
2023-03-08T13:56:23.529Z,8.68
2023-03-08T13:58:50.742Z,8.77
2023-03-08T14:01:19.025Z,8.90
2023-03-08T14:03:46.389Z,9.08
2023-03-08T14:06:30.397Z,9.22
2023-03-08T14:08:57.393Z,9.41
2023-03-08T14:11:36.542Z,9.52
2023-03-08T14:14:05.148Z,9.47
2023-03-08T14:16:31.708Z,9.33
2023-03-08T14:18:59.174Z,9.26
2023-03-08T14:21:29.508Z,9.16
2023-03-08T14:24:00.367Z,9.02
2023-03-08T14:26:29.123Z,8.86
2023-03-08T14:29:22.106Z,8.73
2023-03-08T14:31:57.165Z,8.61
2023-03-08T14:34:24.965Z,8.48
2023-03-08T14:36:56.184Z,8.37
2023-03-08T14:39:23.878Z,8.26
2023-03-08T14:41:50.698Z,8.15
2023-03-08T14:44:19.359Z,8.06
2023-03-08T14:46:46.134Z,7.99
2023-03-08T14:49:20.466Z,7.91
2023-03-08T14:51:46.875Z,7.80
2023-03-08T14:54:19.515Z,7.70
2023-03-08T14:56:46.031Z,7.60
2023-03-08T14:59:25.181Z,7.51
2023-03-08T15:01:54.821Z,7.42
2023-03-08T15:04:23.260Z,7.35
2023-03-08T15:06:50.519Z,7.27
2023-03-08T15:09:18.544Z,7.21
2023-03-08T15:11:45.945Z,7.14
2023-03-08T15:14:12.820Z,7.07
2023-03-08T15:16:39.713Z,6.99
2023-03-08T15:19:06.148Z,6.91
2023-03-08T15:21:32.747Z,6.85
2023-03-08T15:23:59.910Z,6.78
2023-03-08T15:26:27.753Z,6.69
2023-03-08T15:28:54.672Z,6.57
2023-03-08T15:31:20.975Z,6.47
2023-03-08T15:33:47.308Z,6.40
2023-03-08T15:36:14.770Z,6.35
2023-03-08T15:38:41.584Z,6.30
2023-03-08T15:41:11.840Z,6.25
2023-03-08T15:43:38.206Z,6.19
2023-03-08T15:46:04.719Z,6.13
2023-03-08T15:48:31.086Z,6.07
2023-03-08T15:50:57.645Z,5.96
2023-03-08T15:53:34.917Z,5.87
2023-03-08T15:56:02.462Z,5.75
2023-03-08T15:58:28.898Z,5.65
2023-03-08T16:00:55.177Z,5.55
2023-03-08T16:03:22.182Z,5.45
2023-03-08T16:05:48.912Z,5.33
2023-03-08T16:08:15.195Z,5.22
2023-03-08T16:10:42.563Z,5.10
2023-03-08T16:13:09.334Z,4.98
2023-03-08T16:15:38.447Z,4.85
2023-03-08T16:18:04.765Z,4.75
2023-03-08T16:20:31.697Z,4.65
2023-03-08T16:22:57.967Z,4.59
2023-03-08T16:25:27.305Z,4.52
2023-03-08T16:27:54.389Z,4.46
2023-03-08T16:30:20.798Z,4.40
2023-03-08T16:32:47.190Z,4.38
2023-03-08T16:35:13.627Z,4.36
2023-03-08T16:37:39.915Z,4.35
2023-03-08T16:40:07.588Z,4.32
2023-03-08T16:42:34.141Z,4.28
2023-03-08T16:45:00.865Z,4.25
2023-03-08T16:47:27.579Z,4.22
2023-03-08T16:49:54.026Z,4.17
2023-03-08T16:52:20.332Z,4.15
2023-03-08T16:54:46.693Z,4.15
2023-03-08T16:57:19.141Z,4.15
2023-03-08T16:59:46.592Z,4.12
2023-03-08T17:02:14.385Z,4.09
2023-03-08T17:04:40.878Z,4.03
2023-03-08T17:07:07.246Z,3.99
2023-03-08T17:09:34.332Z,3.96
2023-03-08T17:12:01.524Z,3.92
2023-03-08T17:14:27.901Z,3.88
2023-03-08T17:16:54.270Z,3.85
2023-03-08T17:19:20.874Z,3.83
2023-03-08T17:21:49.427Z,3.83
2023-03-08T17:24:17.280Z,3.83
2023-03-08T17:26:47.320Z,3.82
2023-03-08T17:29:14.047Z,3.81
2023-03-08T17:31:41.364Z,3.83
2023-03-08T17:34:08.189Z,3.84
2023-03-08T17:36:34.574Z,3.84
2023-03-08T17:39:01.361Z,3.85
2023-03-08T17:41:27.925Z,3.84
2023-03-08T17:43:54.441Z,3.83
2023-03-08T17:46:22.540Z,3.83
2023-03-08T17:48:49.276Z,3.82
2023-03-08T17:51:17.235Z,3.81
2023-03-08T17:53:44.404Z,3.83
2023-03-08T17:56:12.201Z,3.83
2023-03-08T17:58:39.038Z,3.81
2023-03-08T18:01:06.466Z,3.80
2023-03-08T18:03:33.259Z,3.78
2023-03-08T18:05:59.573Z,3.76
2023-03-08T18:08:26.506Z,3.75
2023-03-08T18:10:52.840Z,3.75
2023-03-08T18:13:19.539Z,3.76
2023-03-08T18:15:48.580Z,3.76
2023-03-08T18:18:14.928Z,3.75
2023-03-08T18:20:41.367Z,3.75
2023-03-08T18:23:08.088Z,3.74
2023-03-08T18:25:34.641Z,3.72
2023-03-08T18:28:02.764Z,3.71
2023-03-08T18:30:29.952Z,3.71
2023-03-08T18:32:56.379Z,3.70
2023-03-08T18:35:25.499Z,3.70
2023-03-08T18:37:52.633Z,3.71
2023-03-08T18:40:19.332Z,3.71
2023-03-08T18:42:45.991Z,3.71
2023-03-08T18:45:12.904Z,3.69
2023-03-08T18:47:40.122Z,3.68
2023-03-08T18:50:07.601Z,3.67
2023-03-08T18:52:34.601Z,3.67
2023-03-08T18:55:23.762Z,3.69
2023-03-08T18:57:59.490Z,3.69
2023-03-08T19:00:26.303Z,3.68
2023-03-08T19:02:52.883Z,3.68
2023-03-08T19:05:21.261Z,3.67
2023-03-08T19:07:51.727Z,3.68
2023-03-08T19:10:20.714Z,3.67
2023-03-08T19:12:47.722Z,3.66
2023-03-08T19:15:15.239Z,3.66
2023-03-08T19:17:42.553Z,3.65
2023-03-08T19:20:09.483Z,3.66
2023-03-08T19:22:37.430Z,3.65
2023-03-08T19:25:04.049Z,3.66
2023-03-08T19:27:35.057Z,3.66
2023-03-08T19:30:02.573Z,3.66
2023-03-08T19:32:29.696Z,3.68
2023-03-08T19:34:56.325Z,3.66
2023-03-08T19:37:37.608Z,3.65
2023-03-08T19:40:08.001Z,3.65
2023-03-08T19:42:44.674Z,3.63
2023-03-08T19:45:12.312Z,3.61
2023-03-08T19:47:39.783Z,3.59
2023-03-08T19:50:06.880Z,3.58
2023-03-08T19:52:34.999Z,3.59
2023-03-08T19:55:02.204Z,3.60
2023-03-08T19:57:29.768Z,3.62
2023-03-08T19:59:58.570Z,3.63
2023-03-08T20:02:26.460Z,3.63
2023-03-08T20:04:53.738Z,3.65
2023-03-08T20:07:24.930Z,3.65
2023-03-08T20:09:52.419Z,3.67
2023-03-08T20:12:19.632Z,3.68
2023-03-08T20:14:46.328Z,3.68
2023-03-08T20:17:13.041Z,3.67
2023-03-08T20:19:39.859Z,3.68
2023-03-08T20:22:06.783Z,3.67
2023-03-08T20:24:33.448Z,3.65
2023-03-08T20:27:01.121Z,3.63
2023-03-08T20:29:27.726Z,3.61
2023-03-08T20:31:54.328Z,3.58
2023-03-08T20:34:20.901Z,3.59
2023-03-08T20:36:47.439Z,3.59
2023-03-08T20:39:13.974Z,3.60
2023-03-08T20:41:40.528Z,3.63
2023-03-08T20:44:09.880Z,3.63
2023-03-08T20:46:36.485Z,3.64
2023-03-08T20:49:03.054Z,3.64
2023-03-08T20:51:40.302Z,3.64
2023-03-08T20:54:06.997Z,3.64
2023-03-08T20:56:33.698Z,3.65
2023-03-08T20:59:00.289Z,3.66
2023-03-08T21:01:28.605Z,3.67
2023-03-08T21:03:55.064Z,3.69
2023-03-08T21:06:23.342Z,3.72
2023-03-08T21:08:49.766Z,3.71
2023-03-08T21:11:17.041Z,3.70
2023-03-08T21:13:44.032Z,3.70
2023-03-08T21:16:11.569Z,3.69
2023-03-08T21:18:38.293Z,3.71
2023-03-08T21:21:05.119Z,3.70
2023-03-08T21:23:31.595Z,3.70
2023-03-08T21:25:59.135Z,3.72
2023-03-08T21:28:25.695Z,3.72
2023-03-08T21:30:52.095Z,3.71
2023-03-08T21:33:18.506Z,3.70
2023-03-08T21:35:44.968Z,3.70
2023-03-08T21:38:11.387Z,3.67
2023-03-08T21:40:38.706Z,3.67
2023-03-08T21:43:05.424Z,3.66
2023-03-08T21:45:32.805Z,3.64
2023-03-08T21:47:59.156Z,3.64
2023-03-08T21:50:26.747Z,3.65
2023-03-08T21:52:54.218Z,3.66
2023-03-08T21:55:20.522Z,3.69
2023-03-08T21:57:47.056Z,3.71
2023-03-08T22:00:16.588Z,3.73
2023-03-08T22:02:43.705Z,3.74
2023-03-08T22:05:13.001Z,3.74
2023-03-08T22:07:41.588Z,3.72
2023-03-08T22:10:09.782Z,3.69
2023-03-08T22:12:36.103Z,3.65
2023-03-08T22:15:02.783Z,3.65
2023-03-08T22:17:29.106Z,3.63
2023-03-08T22:19:55.426Z,3.62
2023-03-08T22:22:21.769Z,3.61
2023-03-08T22:24:48.141Z,3.60
2023-03-08T22:27:14.481Z,3.59
2023-03-08T22:29:40.948Z,3.60
2023-03-08T22:32:07.359Z,3.61
2023-03-08T22:34:34.128Z,3.61
2023-03-08T22:37:00.485Z,3.61
2023-03-08T22:39:27.272Z,3.61
2023-03-08T22:41:53.603Z,3.61
2023-03-08T22:44:20.035Z,3.61
2023-03-08T22:46:46.524Z,3.63
2023-03-08T22:49:13.444Z,3.64
2023-03-08T22:51:41.234Z,3.66
2023-03-08T22:54:13.386Z,3.69
2023-03-08T22:56:39.701Z,3.70
2023-03-08T22:59:06.127Z,3.74
2023-03-08T23:01:32.606Z,3.76
2023-03-08T23:04:00.070Z,3.78
2023-03-08T23:06:27.513Z,3.77
2023-03-08T23:08:54.715Z,3.78
2023-03-08T23:11:21.109Z,3.80
2023-03-08T23:13:47.467Z,3.82
2023-03-08T23:16:14.882Z,3.84
2023-03-08T23:18:41.790Z,3.84
2023-03-08T23:21:09.597Z,3.86
2023-03-08T23:23:36.036Z,3.86
2023-03-08T23:26:06.568Z,3.87
2023-03-08T23:28:33.494Z,3.90
2023-03-08T23:31:00.047Z,3.92
2023-03-08T23:33:26.560Z,3.93
2023-03-08T23:35:52.940Z,3.95
2023-03-08T23:38:19.316Z,3.96
2023-03-08T23:40:45.679Z,3.97
2023-03-08T23:43:11.991Z,3.99
2023-03-08T23:45:38.749Z,4.01
2023-03-08T23:48:05.499Z,4.02
2023-03-08T23:50:31.855Z,4.02
2023-03-08T23:52:58.213Z,4.01
2023-03-08T23:55:24.620Z,4.00
2023-03-08T23:57:50.939Z,4.00
